Time;durP1;ratioP1;P1;durP2;ratioP2;P2;SDS_P1;SDS_P2;PMS_P1;PMS_P2;Temp;Humidity;BMP_temperature;BMP_pressure;BME280_temperature;BME280_humidity;BME280_pressure;Samples;Min_cycle;Max_cycle;Signal;HPM_P1;HPM_P2
2022/04/18 00:04:14;;;;;;;3.80;3.43;;;9.50;77.60;;;;;;10394833;28;20233;-79
2022/04/18 00:09:17;;;;;;;3.60;3.30;;;9.50;75.70;;;;;;10429269;28;20639;-79
2022/04/18 00:14:19;;;;;;;4.10;3.20;;;9.40;76.30;;;;;;10411992;28;20222;-80
2022/04/18 00:19:23;;;;;;;4.00;3.60;;;9.30;76.90;;;;;;10411742;28;20193;-80
2022/04/18 00:24:25;;;;;;;4.50;3.97;;;9.30;77.70;;;;;;10411897;28;20267;-80
2022/04/18 00:29:27;;;;;;;3.77;3.47;;;9.20;77.50;;;;;;10410525;28;20205;-80
2022/04/18 00:34:32;;;;;;;4.60;3.80;;;9.10;76.10;;;;;;10434022;28;20267;-79
2022/04/18 00:39:34;;;;;;;3.57;3.37;;;9.10;77.00;;;;;;10452818;28;20654;-80
2022/04/18 00:44:36;;;;;;;3.93;3.50;;;8.90;80.00;;;;;;10413471;28;20293;-79
2022/04/18 00:49:39;;;;;;;3.60;3.30;;;8.90;78.30;;;;;;10412670;28;20599;-79
2022/04/18 00:54:43;;;;;;;3.10;2.90;;;8.90;77.80;;;;;;10395667;28;20217;-79
2022/04/18 00:59:45;;;;;;;3.80;3.40;;;8.80;79.20;;;;;;10390160;28;20643;-80
2022/04/18 01:05:01;;;;;;;3.63;3.43;;;8.80;80.00;;;;;;10411807;28;20218;-79
2022/04/18 01:10:06;;;;;;;3.40;3.20;;;8.80;79.60;;;;;;10421606;28;20201;-79
2022/04/18 01:15:09;;;;;;;4.33;3.93;;;8.80;79.30;;;;;;10410886;28;20594;-79
2022/04/18 01:20:35;;;;;;;4.20;3.90;;;8.70;79.50;;;;;;10410603;28;20548;-79
2022/04/18 01:31:21;;;;;;;3.53;3.30;;;8.60;77.90;;;;;;10401782;28;20205;-79
2022/04/18 01:36:24;;;;;;;3.67;3.43;;;8.50;80.20;;;;;;10400885;28;20264;-80
2022/04/18 01:41:28;;;;;;;3.90;3.60;;;8.50;80.00;;;;;;10417570;28;20700;-80
2022/04/18 01:46:34;;;;;;;4.30;3.30;;;8.40;81.90;;;;;;10423382;28;20339;-79
2022/04/18 01:51:36;;;;;;;3.73;3.47;;;8.40;80.50;;;;;;10439093;28;20289;-80
2022/04/18 01:56:43;;;;;;;3.93;3.63;;;8.40;80.40;;;;;;10415559;28;20332;-79
2022/04/18 02:01:45;;;;;;;4.23;3.83;;;8.30;81.50;;;;;;10418051;28;20252;-80
2022/04/18 02:06:47;;;;;;;4.53;4.13;;;8.30;82.30;;;;;;10402586;28;20193;-80
2022/04/18 02:11:51;;;;;;;4.37;3.97;;;8.30;80.40;;;;;;10422177;28;20225;-79
2022/04/18 02:16:53;;;;;;;4.10;3.80;;;8.30;82.80;;;;;;10417465;28;20232;-79
2022/04/18 02:21:56;;;;;;;4.33;3.83;;;8.30;83.20;;;;;;10442528;28;20240;-79
2022/04/18 02:26:59;;;;;;;4.43;4.10;;;8.30;81.80;;;;;;10432772;28;20193;-79
2022/04/18 02:37:21;;;;;;;4.10;3.80;;;8.20;80.90;;;;;;10413955;28;20218;-79
2022/04/18 02:42:25;;;;;;;4.03;3.70;;;8.10;80.70;;;;;;10415973;28;20218;-79
2022/04/18 02:47:28;;;;;;;4.17;3.77;;;8.10;82.70;;;;;;10400399;28;20220;-80
2022/04/18 02:52:31;;;;;;;4.93;4.53;;;8.00;82.70;;;;;;10442651;28;20225;-80
2022/04/18 02:57:35;;;;;;;4.10;3.80;;;8.00;82.90;;;;;;10440442;28;20222;-80
2022/04/18 03:02:39;;;;;;;4.50;4.20;;;7.90;83.70;;;;;;10440041;28;20281;-80
2022/04/18 03:07:42;;;;;;;4.20;3.90;;;7.90;83.90;;;;;;10414637;28;20194;-80
2022/04/18 03:12:52;;;;;;;4.23;3.93;;;7.80;84.40;;;;;;10414896;28;20221;-80
2022/04/18 03:17:54;;;;;;;4.07;3.77;;;7.80;85.00;;;;;;10413973;28;20289;-80
2022/04/18 03:22:56;;;;;;;4.40;4.03;;;7.80;83.00;;;;;;10440418;28;20236;-80
2022/04/18 03:28:20;;;;;;;4.77;4.47;;;7.80;83.40;;;;;;10417013;28;20670;-80
2022/04/18 03:33:22;;;;;;;4.67;4.20;;;7.70;82.00;;;;;;10415486;28;20237;-80
2022/04/18 03:43:42;;;;;;;5.20;4.20;;;7.60;83.00;;;;;;10379072;28;20221;-80
2022/04/18 03:48:44;;;;;;;4.23;3.83;;;7.60;84.40;;;;;;10419593;28;20256;-79
2022/04/18 03:53:46;;;;;;;4.40;4.00;;;7.60;85.90;;;;;;10444112;28;20245;-80
2022/04/18 03:58:51;;;;;;;4.53;4.20;;;7.60;85.50;;;;;;10441612;28;20274;-80
2022/04/18 04:03:54;;;;;;;4.50;4.20;;;7.60;85.10;;;;;;10412973;28;20292;-80
2022/04/18 04:08:58;;;;;;;7.17;4.43;;;7.60;86.30;;;;;;10442678;28;20186;-80
2022/04/18 04:14:08;;;;;;;5.00;4.53;;;7.60;86.90;;;;;;10412612;28;20218;-80
2022/04/18 04:19:10;;;;;;;4.47;4.17;;;7.60;87.90;;;;;;10427323;28;20610;-80
2022/04/18 04:24:12;;;;;;;4.40;4.00;;;7.70;85.60;;;;;;10431530;28;20229;-79
2022/04/18 04:29:22;;;;;;;4.50;4.20;;;7.60;84.70;;;;;;10416554;28;20619;-79
2022/04/18 04:34:51;;;;;;;4.87;4.00;;;7.50;86.20;;;;;;10412397;28;20230;-80
2022/04/18 04:40:01;;;;;;;4.73;4.43;;;7.50;85.70;;;;;;10405342;28;20741;-80
2022/04/18 04:45:11;;;;;;;4.90;4.50;;;7.40;85.30;;;;;;10416018;28;20240;-79
2022/04/18 04:50:32;;;;;;;4.80;4.50;;;7.40;84.20;;;;;;10454295;28;20200;-78
2022/04/18 04:55:37;;;;;;;4.10;3.80;;;7.40;85.30;;;;;;10420351;28;20643;-81
2022/04/18 05:00:43;;;;;;;4.17;3.87;;;7.40;82.50;;;;;;10431750;28;20276;-78
2022/04/18 05:06:11;;;;;;;5.17;4.70;;;7.30;85.00;;;;;;10421089;28;20325;-79
2022/04/18 05:11:18;;;;;;;4.93;4.43;;;7.30;86.90;;;;;;10406305;28;20206;-80
2022/04/18 05:16:25;;;;;;;4.27;3.97;;;7.30;87.00;;;;;;10404584;28;20237;-80
2022/04/18 05:21:46;;;;;;;4.83;4.43;;;7.40;84.60;;;;;;10463035;28;20197;-80
2022/04/18 05:26:59;;;;;;;4.90;3.77;;;7.40;85.70;;;;;;10380413;28;20580;-80
2022/04/18 05:32:02;;;;;;;4.80;3.90;;;7.40;85.90;;;;;;10397173;28;20304;-80
2022/04/18 05:37:09;;;;;;;3.93;3.47;;;7.50;87.00;;;;;;10462743;28;20719;-80
2022/04/18 05:42:35;;;;;;;4.30;4.00;;;7.60;85.30;;;;;;10396528;28;20328;-81
2022/04/18 05:47:44;;;;;;;4.93;4.50;;;7.70;86.40;;;;;;10455840;28;20264;-81
2022/04/18 05:52:47;;;;;;;5.43;4.93;;;7.80;87.80;;;;;;10424515;28;20213;-80
2022/04/18 05:58:08;;;;;;;4.87;4.43;;;7.80;88.10;;;;;;10458162;28;20245;-80
2022/04/18 06:03:14;;;;;;;4.67;4.27;;;7.90;87.00;;;;;;10423017;28;20258;-80
2022/04/18 06:08:17;;;;;;;5.90;5.13;;;8.00;88.10;;;;;;10453020;28;20236;-80
2022/04/18 06:13:30;;;;;;;10.63;6.23;;;8.10;87.00;;;;;;10451293;28;20213;-80
2022/04/18 06:18:36;;;;;;;6.07;5.57;;;8.20;87.70;;;;;;10406740;28;20220;-80
2022/04/18 06:23:42;;;;;;;5.73;5.23;;;8.40;87.90;;;;;;10452450;28;20639;-79
2022/04/18 06:29:03;;;;;;;5.90;5.47;;;8.50;87.60;;;;;;10425825;28;20189;-80
2022/04/18 06:34:07;;;;;;;6.50;6.00;;;8.60;89.80;;;;;;10435417;28;20256;-81
2022/04/18 06:39:14;;;;;;;6.57;5.97;;;8.70;89.80;;;;;;10450908;28;20684;-80
2022/04/18 06:44:16;;;;;;;6.60;6.00;;;8.80;89.10;;;;;;10408258;28;20225;-80
2022/04/18 06:49:28;;;;;;;6.77;6.10;;;8.90;88.70;;;;;;10417214;28;20189;-80
2022/04/18 06:54:57;;;;;;;6.40;5.93;;;9.10;89.50;;;;;;10421501;28;20218;-79
2022/04/18 06:59:59;;;;;;;6.80;6.20;;;9.20;89.20;;;;;;10414757;28;20221;-78
2022/04/18 07:05:09;;;;;;;6.27;5.50;;;9.30;89.50;;;;;;10420643;28;20290;-80
2022/04/18 07:10:11;;;;;;;6.20;5.70;;;9.50;89.30;;;;;;10416887;28;20190;-79
2022/04/18 07:15:14;;;;;;;6.77;6.07;;;9.60;89.70;;;;;;10419112;28;20238;-80
2022/04/18 07:20:19;;;;;;;7.17;6.47;;;9.70;89.30;;;;;;10416845;28;20194;-80
2022/04/18 07:25:22;;;;;;;7.00;6.40;;;9.90;89.00;;;;;;10420214;28;20229;-78
2022/04/18 07:30:39;;;;;;;6.00;5.47;;;10.00;88.00;;;;;;10401839;28;20255;-83
2022/04/18 07:35:43;;;;;;;6.30;5.70;;;10.20;88.90;;;;;;10415640;28;20731;-80
2022/04/18 07:40:48;;;;;;;5.20;4.80;;;10.40;87.00;;;;;;10424205;28;20274;-78
2022/04/18 07:45:56;;;;;;;5.07;4.77;;;10.60;84.00;;;;;;10416344;28;20222;-80
2022/04/18 07:56:21;;;;;;;4.50;4.20;;;11.60;79.80;;;;;;10416903;28;20340;-83
2022/04/18 08:01:23;;;;;;;5.20;4.70;;;12.10;76.70;;;;;;10424031;28;20495;-80
2022/04/18 08:06:27;;;;;;;4.77;4.20;;;12.60;77.00;;;;;;10425331;28;20229;-83
2022/04/18 08:11:38;;;;;;;5.10;4.60;;;13.10;70.10;;;;;;10411976;28;20618;-83
2022/04/18 08:16:41;;;;;;;4.83;4.43;;;13.40;72.70;;;;;;10414957;28;20296;-80
2022/04/18 08:22:02;;;;;;;5.40;4.90;;;13.80;71.70;;;;;;10415863;28;20231;-81
2022/04/18 08:27:06;;;;;;;5.20;4.80;;;14.10;69.10;;;;;;10412159;28;20462;-78
2022/04/18 08:32:17;;;;;;;5.33;4.93;;;14.40;66.90;;;;;;10388367;28;20225;-78
2022/04/18 08:37:22;;;;;;;4.63;4.20;;;14.60;66.40;;;;;;10411620;28;20690;-81
2022/04/18 08:42:55;;;;;;;5.83;5.33;;;14.80;68.70;;;;;;10419973;28;20240;-79
2022/04/18 08:53:19;;;;;;;5.47;4.87;;;15.40;68.00;;;;;;10398423;28;20213;-79
2022/04/18 08:58:24;;;;;;;6.80;5.13;;;15.60;65.90;;;;;;10420010;28;20213;-79
2022/04/18 09:03:29;;;;;;;4.97;4.57;;;15.80;60.00;;;;;;10421352;28;20312;-80
2022/04/18 09:08:42;;;;;;;7.00;5.13;;;15.90;63.40;;;;;;10423162;28;20221;-80
2022/04/18 09:13:45;;;;;;;5.67;5.17;;;16.00;63.20;;;;;;10407408;28;20304;-80
2022/04/18 09:19:05;;;;;;;4.77;4.33;;;16.20;58.90;;;;;;10430025;28;20697;-80
2022/04/18 09:24:22;;;;;;;4.90;4.50;;;16.40;61.60;;;;;;10447217;28;20255;-80
2022/04/18 09:29:40;;;;;;;4.23;3.93;;;16.60;59.30;;;;;;10433255;28;20563;-80
2022/04/18 09:34:46;;;;;;;4.60;4.30;;;16.80;58.60;;;;;;10419512;28;20217;-80
2022/04/18 09:39:54;;;;;;;5.20;4.80;;;17.00;58.60;;;;;;10429878;28;20232;-80
2022/04/18 09:44:57;;;;;;;3.87;3.57;;;17.20;58.00;;;;;;10403319;28;20605;-81
2022/04/18 09:50:58;;;;;;;4.90;4.37;;;17.60;57.90;;;;;;10412813;28;20194;-80
2022/04/18 09:55:46;;;;;;;4.87;4.47;;;17.90;55.90;;;;;;10418686;28;20210;-80
2022/04/18 10:00:49;;;;;;;4.70;3.90;;;18.20;55.80;;;;;;10422244;28;20221;-79
2022/04/18 10:05:52;;;;;;;5.67;4.47;;;18.20;55.60;;;;;;10431485;28;20222;-79
2022/04/18 10:10:58;;;;;;;6.73;4.43;;;18.40;55.00;;;;;;10433236;28;20736;-81
2022/04/18 10:16:00;;;;;;;4.50;4.20;;;18.40;54.00;;;;;;10419998;28;20719;-80
2022/04/18 10:21:27;;;;;;;4.20;3.90;;;18.00;56.00;;;;;;10432383;28;20201;-81
2022/04/18 10:26:56;;;;;;;4.70;4.30;;;17.60;54.90;;;;;;10404703;28;20971;-81
2022/04/18 10:32:03;;;;;;;4.70;4.13;;;17.10;54.40;;;;;;10407160;28;20364;-81
2022/04/18 10:37:05;;;;;;;4.53;4.13;;;16.80;55.20;;;;;;10412019;28;20244;-81
2022/04/18 10:42:23;;;;;;;4.73;4.40;;;16.50;56.10;;;;;;10404982;28;20217;-81
2022/04/18 10:47:25;;;;;;;7.27;4.37;;;16.30;56.20;;;;;;10398182;28;20284;-80
2022/04/18 10:52:29;;;;;;;4.20;3.90;;;16.10;57.10;;;;;;10453011;28;20228;-79
2022/04/18 10:57:33;;;;;;;5.13;4.67;;;15.90;57.40;;;;;;10405976;28;20221;-81
2022/04/18 11:02:39;;;;;;;4.60;4.30;;;15.80;56.80;;;;;;10413120;28;20233;-80
2022/04/18 11:07:44;;;;;;;4.60;4.20;;;15.70;56.00;;;;;;10410218;28;20204;-78
2022/04/18 11:12:48;;;;;;;5.03;4.53;;;15.60;58.10;;;;;;10411312;28;20222;-80
2022/04/18 11:17:50;;;;;;;5.47;4.97;;;15.50;58.30;;;;;;10424810;28;20530;-80
2022/04/18 11:23:17;;;;;;;5.60;5.10;;;15.50;56.80;;;;;;10448032;28;20217;-80
2022/04/18 11:28:21;;;;;;;5.47;5.07;;;15.50;57.30;;;;;;10409294;28;20193;-81
2022/04/18 11:33:23;;;;;;;4.27;3.87;;;15.40;56.00;;;;;;10411837;28;20224;-81
2022/04/18 11:38:26;;;;;;;4.07;3.77;;;15.40;59.60;;;;;;10459581;28;20240;-80
2022/04/18 11:43:30;;;;;;;4.93;4.63;;;15.30;64.40;;;;;;10458560;28;20221;-80
2022/04/18 11:48:33;;;;;;;4.60;4.30;;;15.30;62.30;;;;;;10407986;28;20209;-80
2022/04/18 11:53:35;;;;;;;5.30;4.80;;;15.30;57.30;;;;;;10447261;28;20235;-80
2022/04/18 11:58:40;;;;;;;4.70;4.33;;;15.30;61.40;;;;;;10412317;28;20252;-80
2022/04/18 12:09:02;;;;;;;4.63;4.23;;;15.40;57.00;;;;;;10407986;28;20221;-80
2022/04/18 12:14:06;;;;;;;4.90;4.50;;;15.40;55.80;;;;;;10414039;28;20230;-80
2022/04/18 12:19:12;;;;;;;3.93;3.63;;;15.50;55.40;;;;;;10383640;28;20232;-81
2022/04/18 12:24:14;;;;;;;4.17;3.87;;;15.40;57.60;;;;;;10386709;28;20723;-80
2022/04/18 12:29:19;;;;;;;4.23;3.93;;;15.40;60.00;;;;;;10402629;28;20213;-80
2022/04/18 12:34:23;;;;;;;5.03;4.53;;;15.40;61.50;;;;;;10403402;28;20739;-80
2022/04/18 12:39:25;;;;;;;4.07;3.77;;;15.40;61.00;;;;;;10415746;28;20235;-79
2022/04/18 12:44:29;;;;;;;4.63;4.30;;;15.40;65.20;;;;;;10405929;28;20309;-82
2022/04/18 12:49:31;;;;;;;3.70;3.43;;;15.40;56.90;;;;;;10404771;28;20742;-82
2022/04/18 12:54:33;;;;;;;4.50;4.10;;;15.40;58.90;;;;;;10412634;28;20221;-83
2022/04/18 12:59:42;;;;;;;4.23;3.93;;;15.40;57.90;;;;;;10435368;28;20213;-81
2022/04/18 13:05:00;;;;;;;4.30;4.00;;;15.50;57.60;;;;;;10409228;28;20279;-82
2022/04/18 13:10:03;;;;;;;5.03;4.00;;;15.50;57.80;;;;;;10425734;28;20225;-80
2022/04/18 13:15:11;;;;;;;4.33;4.03;;;15.60;55.30;;;;;;10401797;28;20280;-79
2022/04/18 13:20:13;;;;;;;3.43;3.23;;;15.60;55.70;;;;;;10397599;28;20237;-79
2022/04/18 13:25:15;;;;;;;3.43;3.13;;;15.60;60.00;;;;;;10405130;28;20229;-79
2022/04/18 13:30:19;;;;;;;4.30;3.90;;;15.50;61.10;;;;;;10402251;28;20204;-79
2022/04/18 13:35:26;;;;;;;4.17;3.53;;;15.60;57.20;;;;;;10405179;28;20304;-80
2022/04/18 13:40:28;;;;;;;3.90;3.70;;;15.60;61.30;;;;;;10400249;28;20354;-80
2022/04/18 13:45:32;;;;;;;3.90;3.60;;;15.70;56.40;;;;;;10404815;28;20591;-79
2022/04/18 13:50:35;;;;;;;3.50;3.30;;;15.80;55.50;;;;;;10407095;28;20200;-79
2022/04/18 13:55:37;;;;;;;4.17;3.87;;;15.90;54.70;;;;;;10407215;28;20224;-78
2022/04/18 14:00:43;;;;;;;3.23;3.03;;;15.90;55.50;;;;;;10419343;28;20222;-77
2022/04/18 14:05:45;;;;;;;4.03;3.77;;;15.90;61.00;;;;;;10418824;28;20225;-79
2022/04/18 14:10:47;;;;;;;3.60;3.40;;;16.00;57.00;;;;;;10411654;28;20202;-79
2022/04/18 14:21:25;;;;;;;3.93;3.63;;;16.20;55.00;;;;;;10314702;28;20493;-78
2022/04/18 14:26:27;;;;;;;4.60;4.20;;;16.10;56.30;;;;;;10383952;28;20225;-78
2022/04/18 14:31:31;;;;;;;3.33;3.13;;;16.10;58.20;;;;;;10414953;28;20209;-80
2022/04/18 14:36:33;;;;;;;2.90;2.80;;;16.10;56.20;;;;;;10417096;28;20248;-80
2022/04/18 14:41:35;;;;;;;3.00;2.80;;;16.10;59.10;;;;;;10424658;28;20202;-80
2022/04/18 14:46:43;;;;;;;3.07;2.80;;;16.20;56.60;;;;;;10424311;28;20198;-79
2022/04/18 14:51:45;;;;;;;3.37;3.07;;;16.30;54.90;;;;;;10430521;28;20197;-79
2022/04/18 14:56:47;;;;;;;3.27;3.07;;;16.30;57.40;;;;;;10424595;28;20216;-79
2022/04/18 15:01:51;;;;;;;3.13;2.93;;;16.30;55.50;;;;;;10446131;28;20219;-80
2022/04/18 15:06:53;;;;;;;2.90;2.73;;;16.30;56.50;;;;;;10463269;28;20474;-80
2022/04/18 15:11:55;;;;;;;2.67;2.50;;;16.30;59.00;;;;;;10404917;28;20280;-79
2022/04/18 15:16:59;;;;;;;3.33;3.03;;;16.30;61.70;;;;;;10413179;28;20242;-79
2022/04/18 15:22:03;;;;;;;2.70;2.53;;;16.20;60.40;;;;;;10409204;28;20273;-82
2022/04/18 15:27:05;;;;;;;2.53;2.43;;;16.20;67.20;;;;;;10407959;28;20193;-81
2022/04/18 15:32:10;;;;;;;3.80;3.60;;;16.10;58.90;;;;;;10403676;28;20229;-80
2022/04/18 15:37:13;;;;;;;3.40;3.20;;;16.20;61.80;;;;;;10420355;28;20225;-81
2022/04/18 15:42:15;;;;;;;3.13;2.90;;;16.40;63.20;;;;;;10406145;28;20242;-82
2022/04/18 15:47:21;;;;;;;3.00;2.80;;;16.60;59.10;;;;;;10414001;28;20206;-81
2022/04/18 15:52:23;;;;;;;3.27;3.07;;;16.70;60.30;;;;;;10410429;28;20694;-81
2022/04/18 15:57:28;;;;;;;4.13;2.93;;;16.60;59.50;;;;;;10402060;28;20222;-81
2022/04/18 16:02:38;;;;;;;3.00;2.80;;;16.60;59.10;;;;;;10405384;22;20785;-83
2022/04/18 16:07:41;;;;;;;6.40;3.00;;;16.50;58.50;;;;;;10317452;28;20539;-83
2022/04/18 16:12:43;;;;;;;3.10;2.80;;;16.40;58.50;;;;;;10289124;28;20222;-84
2022/04/18 16:17:53;;;;;;;2.70;2.50;;;16.40;59.40;;;;;;10358376;28;20264;-83
2022/04/18 16:22:55;;;;;;;2.70;2.47;;;16.30;65.00;;;;;;10329796;28;20250;-84
2022/04/18 16:27:57;;;;;;;3.40;2.50;;;16.30;59.20;;;;;;10337613;28;20202;-84
2022/04/18 16:33:01;;;;;;;2.33;2.23;;;16.30;59.20;;;;;;10352047;28;21086;-84
2022/04/18 16:38:03;;;;;;;2.77;2.57;;;16.30;57.40;;;;;;10336624;28;20222;-84
2022/04/18 16:48:26;;;;;;;2.27;2.07;;;16.20;64.90;;;;;;10335194;28;20195;-84
2022/04/18 16:53:28;;;;;;;2.50;2.40;;;16.10;63.00;;;;;;10334393;28;20300;-84
2022/04/18 16:58:30;;;;;;;5.03;2.53;;;16.10;60.00;;;;;;10337924;28;20222;-84
2022/04/18 17:03:34;;;;;;;2.47;2.27;;;16.10;59.70;;;;;;10339832;28;20238;-84
2022/04/18 17:08:36;;;;;;;2.73;2.50;;;16.00;64.10;;;;;;10321818;28;20191;-83
2022/04/18 17:13:38;;;;;;;3.13;2.40;;;16.00;62.50;;;;;;10370706;28;20215;-83
2022/04/18 17:18:42;;;;;;;3.07;2.77;;;16.00;64.90;;;;;;10381687;28;20363;-84
2022/04/18 17:23:44;;;;;;;4.30;2.73;;;15.90;71.40;;;;;;10357101;28;20581;-84
2022/04/18 17:28:47;;;;;;;3.40;2.70;;;15.90;71.20;;;;;;10361566;28;20205;-84
2022/04/18 17:33:51;;;;;;;2.83;2.40;;;15.70;66.30;;;;;;10360304;28;20222;-84
2022/04/18 17:38:53;;;;;;;3.37;2.37;;;15.70;66.40;;;;;;10352993;28;20683;-83
2022/04/18 17:43:56;;;;;;;2.83;2.63;;;15.70;63.00;;;;;;10369421;28;20254;-83
2022/04/18 17:49:00;;;;;;;2.70;2.50;;;15.70;68.30;;;;;;10334348;28;20198;-84
2022/04/18 17:59:23;;;;;;;2.90;2.63;;;15.50;72.50;;;;;;10336019;28;20230;-84
2022/04/18 18:04:26;;;;;;;2.90;2.70;;;15.40;70.60;;;;;;10352133;28;20720;-83
2022/04/18 18:09:29;;;;;;;4.40;4.10;;;15.30;74.50;;;;;;10336333;28;20708;-83
2022/04/18 18:14:31;;;;;;;3.33;3.03;;;15.20;76.90;;;;;;10347926;28;20227;-83
2022/04/18 18:19:34;;;;;;;3.03;2.43;;;15.10;68.80;;;;;;10360856;28;20219;-83
2022/04/18 18:24:36;;;;;;;2.93;2.73;;;15.00;66.50;;;;;;10352132;28;20597;-84
2022/04/18 18:29:38;;;;;;;3.13;2.83;;;15.00;66.30;;;;;;10364447;28;20199;-82
2022/04/18 18:34:43;;;;;;;3.40;3.10;;;14.90;66.20;;;;;;10363241;28;20284;-83
2022/04/18 18:39:48;;;;;;;3.00;2.80;;;14.80;65.10;;;;;;10356708;28;20230;-83
2022/04/18 18:44:50;;;;;;;3.13;2.70;;;14.60;65.10;;;;;;10366764;28;20226;-83
2022/04/18 18:52:23;;;;;;;2.90;2.70;;;14.50;66.80;;;;;;10343004;28;20297;-83
2022/04/18 18:55:16;;;;;;;4.20;2.77;;;14.30;67.10;;;;;;10364872;28;20309;-83
2022/04/18 19:00:21;;;;;;;3.27;2.97;;;14.20;67.50;;;;;;10342621;28;20735;-83
2022/04/18 19:05:25;;;;;;;4.63;3.60;;;14.10;69.10;;;;;;10344683;28;20226;-82
2022/04/18 19:10:27;;;;;;;4.30;3.27;;;13.90;68.00;;;;;;10368068;28;20206;-82
2022/04/18 19:15:29;;;;;;;5.93;3.70;;;13.80;68.80;;;;;;10367322;28;20285;-82
2022/04/18 19:26:23;;;;;;;3.47;3.17;;;13.60;68.80;;;;;;10334183;28;20597;-82
2022/04/18 19:31:26;;;;;;;3.70;3.40;;;13.50;70.60;;;;;;10369186;28;20249;-82
2022/04/18 19:36:30;;;;;;;3.10;2.90;;;13.40;69.20;;;;;;10366942;28;20254;-82
2022/04/18 19:41:33;;;;;;;3.27;2.90;;;13.30;70.70;;;;;;10351020;28;20222;-82
2022/04/18 19:46:36;;;;;;;3.30;3.00;;;13.20;71.60;;;;;;10390500;28;20222;-82
2022/04/18 19:51:39;;;;;;;3.13;2.93;;;13.10;73.00;;;;;;10319287;28;20217;-82
2022/04/18 19:56:41;;;;;;;3.37;3.07;;;13.10;71.10;;;;;;10340449;28;20219;-82
2022/04/18 20:01:43;;;;;;;3.60;3.30;;;13.00;71.40;;;;;;10343516;28;20238;-82
2022/04/18 20:06:47;;;;;;;4.27;3.87;;;12.90;71.60;;;;;;10355027;28;20230;-82
2022/04/18 20:11:50;;;;;;;3.47;3.03;;;12.80;71.50;;;;;;10348073;28;20194;-80
2022/04/18 20:16:52;;;;;;;3.93;3.63;;;12.80;71.90;;;;;;10321683;28;20229;-81
2022/04/18 20:21:57;;;;;;;3.93;3.57;;;12.70;71.80;;;;;;10351402;28;20219;-82
2022/04/18 20:27:00;;;;;;;3.10;2.90;;;12.60;72.00;;;;;;10353253;28;20257;-83
2022/04/18 20:32:02;;;;;;;3.73;3.37;;;12.50;71.60;;;;;;10363408;28;20561;-80
2022/04/18 20:37:06;;;;;;;3.90;3.60;;;12.50;71.00;;;;;;10353480;28;20212;-81
2022/04/18 20:42:08;;;;;;;4.00;3.70;;;12.40;71.60;;;;;;10342378;28;20218;-82
2022/04/18 20:47:11;;;;;;;4.30;3.90;;;12.30;72.40;;;;;;10379467;28;20293;-82
2022/04/18 20:58:30;;;;;;;4.37;4.07;;;12.20;72.30;;;;;;10349897;28;20272;-81
2022/04/18 21:02:56;;;;;;;4.17;3.07;;;12.10;72.40;;;;;;10346598;28;20293;-82
2022/04/18 21:08:00;;;;;;;3.40;3.20;;;12.00;73.80;;;;;;10333762;28;20230;-82
2022/04/18 21:13:02;;;;;;;3.53;3.23;;;11.90;76.10;;;;;;10359061;28;20222;-82
2022/04/18 21:18:06;;;;;;;4.37;3.17;;;11.90;75.50;;;;;;10350777;28;20306;-82
2022/04/18 21:23:11;;;;;;;3.83;3.40;;;11.90;75.00;;;;;;10349226;28;20310;-81
2022/04/18 21:28:14;;;;;;;3.53;3.20;;;11.90;74.60;;;;;;10333221;28;20244;-82
2022/04/18 21:33:17;;;;;;;3.80;3.50;;;11.80;74.50;;;;;;10354990;28;20642;-81
2022/04/18 21:38:20;;;;;;;5.47;3.40;;;11.80;75.50;;;;;;10346435;28;20276;-82
2022/04/18 21:43:22;;;;;;;4.00;3.60;;;11.80;75.30;;;;;;10344460;28;20757;-82
2022/04/18 21:48:24;;;;;;;3.23;3.00;;;11.70;75.90;;;;;;10346408;28;20605;-82
2022/04/18 21:53:29;;;;;;;3.70;3.40;;;11.60;77.30;;;;;;10351552;28;20222;-81
2022/04/18 21:58:31;;;;;;;3.50;2.80;;;11.60;75.50;;;;;;10316015;28;20266;-83
2022/04/18 22:03:33;;;;;;;3.03;2.83;;;11.50;74.20;;;;;;10343845;28;20234;-83
2022/04/18 22:08:37;;;;;;;4.00;3.60;;;11.40;75.40;;;;;;10375648;28;20190;-83
2022/04/18 22:13:39;;;;;;;3.33;3.07;;;11.40;74.50;;;;;;10353886;28;20223;-83
2022/04/18 22:18:41;;;;;;;4.00;3.70;;;11.30;75.30;;;;;;10356554;28;20229;-83
2022/04/18 22:29:05;;;;;;;3.20;3.00;;;11.20;75.80;;;;;;10332561;28;20206;-83
2022/04/18 22:34:08;;;;;;;2.83;2.63;;;11.10;76.20;;;;;;10387563;28;20265;-83
2022/04/18 22:39:12;;;;;;;2.87;2.67;;;11.10;76.70;;;;;;10353035;28;20214;-83
2022/04/18 22:44:14;;;;;;;3.63;3.43;;;11.10;77.50;;;;;;10354838;28;20357;-82
2022/04/18 22:49:19;;;;;;;3.03;2.83;;;11.00;77.40;;;;;;10354597;28;20203;-83
2022/04/18 22:54:23;;;;;;;4.10;3.70;;;11.00;78.60;;;;;;10321093;28;20703;-82
2022/04/18 22:59:26;;;;;;;2.87;2.53;;;10.90;78.50;;;;;;10358897;28;20218;-84
2022/04/18 23:04:28;;;;;;;2.80;2.60;;;10.90;76.90;;;;;;10383126;28;20222;-85
2022/04/18 23:09:32;;;;;;;2.37;2.23;;;10.90;77.70;;;;;;10368284;28;20579;-84
2022/04/18 23:14:34;;;;;;;2.70;2.50;;;10.90;78.30;;;;;;10365323;28;20242;-82
2022/04/18 23:19:36;;;;;;;3.50;3.20;;;10.80;78.30;;;;;;10366223;28;20211;-84
2022/04/18 23:24:41;;;;;;;2.47;2.33;;;10.80;77.60;;;;;;10332799;28;20215;-83
2022/04/18 23:29:44;;;;;;;2.80;2.33;;;10.70;77.70;;;;;;10348930;28;20195;-85
2022/04/18 23:34:46;;;;;;;2.90;2.70;;;10.70;78.50;;;;;;10376687;28;20241;-83
2022/04/18 23:45:09;;;;;;;3.07;2.67;;;10.60;79.20;;;;;;10377138;28;20223;-83
2022/04/18 23:55:35;;;;;;;2.70;2.50;;;10.50;78.00;;;;;;10362580;28;20241;-83
